createdAt,value
2023-02-25T00:00:17.101Z,4.25
2023-02-25T00:00:57.665Z,4.25
2023-02-25T00:01:44.384Z,4.25
2023-02-25T00:02:26.177Z,4.25
2023-02-25T00:03:11.120Z,4.25
2023-02-25T00:03:56.300Z,4.25
2023-02-25T00:04:41.330Z,4.25
2023-02-25T00:05:26.267Z,4.25
2023-02-25T00:06:11.617Z,4.25
2023-02-25T00:06:56.473Z,4.25
2023-02-25T00:07:43.981Z,4.25
2023-02-25T00:08:26.437Z,4.25
2023-02-25T00:09:11.536Z,4.25
2023-02-25T00:09:56.396Z,4.25
2023-02-25T00:10:45.570Z,4.25
2023-02-25T00:11:26.613Z,4.25
2023-02-25T00:12:13.211Z,4.25
2023-02-25T00:13:05.908Z,4.25
2023-02-25T00:13:46.464Z,4.25
2023-02-25T00:14:29.911Z,4.25
2023-02-25T00:15:13.927Z,4.25
2023-02-25T00:16:02.371Z,4.25
2023-02-25T00:16:47.184Z,4.25
2023-02-25T00:17:32.305Z,4.25
2023-02-25T00:18:17.336Z,4.25
2023-02-25T00:18:52.740Z,17.00
2023-02-25T00:25:31.869Z,0.00
2023-02-25T00:26:14.167Z,12.00
2023-02-25T00:27:00.717Z,12.00
2023-02-25T00:27:44.144Z,12.00
2023-02-25T00:28:31.518Z,12.00
2023-02-25T00:29:20.483Z,12.00
2023-02-25T00:30:01.155Z,12.00
2023-02-25T00:30:50.583Z,12.00
2023-02-25T00:31:35.259Z,12.00
2023-02-25T00:32:20.697Z,12.00
2023-02-25T00:33:05.364Z,12.00
2023-02-25T00:33:50.580Z,12.00
2023-02-25T00:34:35.172Z,12.00
2023-02-25T00:35:21.246Z,12.00
2023-02-25T00:36:05.633Z,12.00
2023-02-25T00:36:50.602Z,12.00
2023-02-25T00:37:35.886Z,12.00
2023-02-25T00:38:20.607Z,12.00
2023-02-25T00:39:05.722Z,12.00
2023-02-25T00:39:50.758Z,12.00
2023-02-25T00:40:35.914Z,12.00
2023-02-25T00:41:20.886Z,12.00
2023-02-25T00:42:06.292Z,12.00
2023-02-25T00:42:51.394Z,12.00
2023-02-25T00:43:36.039Z,12.00
2023-02-25T00:44:21.306Z,12.00
2023-02-25T00:45:05.436Z,12.00
2023-02-25T00:45:51.113Z,12.00
2023-02-25T00:46:36.486Z,12.00
2023-02-25T00:47:21.290Z,12.00
2023-02-25T00:48:06.277Z,12.00
2023-02-25T00:48:51.823Z,12.00
2023-02-25T00:49:36.403Z,12.00
2023-02-25T00:50:22.318Z,12.00
2023-02-25T00:51:06.632Z,12.00
2023-02-25T00:51:51.509Z,12.00
2023-02-25T00:52:36.705Z,12.00
2023-02-25T00:53:21.744Z,12.00
2023-02-25T00:54:07.167Z,12.00
2023-02-25T00:54:52.404Z,12.00
2023-02-25T00:55:36.962Z,12.00
2023-02-25T00:56:22.009Z,12.00
2023-02-25T00:57:07.064Z,12.00
2023-02-25T00:57:52.126Z,12.00
2023-02-25T00:58:27.757Z,9.00
2023-02-25T00:59:11.921Z,25.00
2023-02-25T00:59:57.253Z,39.00
2023-02-25T01:00:51.400Z,57.00
2023-02-25T01:01:27.802Z,43.00
2023-02-25T01:02:12.314Z,51.00
2023-02-25T01:02:57.608Z,52.00
2023-02-25T01:03:42.845Z,52.00
2023-02-25T01:04:27.736Z,53.00
2023-02-25T01:05:13.717Z,58.00
2023-02-25T01:05:57.880Z,55.00
2023-02-25T01:06:42.866Z,53.00
2023-02-25T01:07:27.993Z,51.00
2023-02-25T01:08:12.952Z,55.00
2023-02-25T01:08:58.474Z,55.00
2023-02-25T01:09:43.232Z,52.00
2023-02-25T01:10:27.729Z,47.00
2023-02-25T01:11:13.254Z,51.00
2023-02-25T01:11:58.074Z,50.99
2023-02-25T01:12:43.502Z,52.00
2023-02-25T01:13:28.365Z,51.00
2023-02-25T01:14:13.320Z,49.00
2023-02-25T01:14:58.273Z,50.99
2023-02-25T01:15:43.532Z,51.99
2023-02-25T01:16:28.596Z,52.00
2023-02-25T01:17:13.541Z,51.99
2023-02-25T01:17:58.396Z,49.00
2023-02-25T01:18:43.275Z,47.99
2023-02-25T01:19:28.650Z,49.00
2023-02-25T01:20:14.377Z,49.00
2023-02-25T01:20:58.627Z,53.00
2023-02-25T01:21:43.636Z,50.00
2023-02-25T01:22:28.561Z,53.00
2023-02-25T01:23:13.998Z,53.00
2023-02-25T01:23:58.949Z,50.00
2023-02-25T01:24:43.907Z,50.00
2023-02-25T01:25:28.487Z,48.00
2023-02-25T01:26:13.809Z,46.00
2023-02-25T01:26:58.786Z,48.00
2023-02-25T01:27:44.237Z,47.00
2023-02-25T01:28:28.944Z,47.00
2023-02-25T01:29:14.074Z,47.00
2023-02-25T01:29:59.334Z,46.00
2023-02-25T01:30:44.288Z,46.00
2023-02-25T01:31:29.559Z,42.00
2023-02-25T01:32:14.379Z,46.00
2023-02-25T01:32:59.624Z,47.00
2023-02-25T01:33:44.478Z,45.00
2023-02-25T01:34:29.557Z,45.00
2023-02-25T01:35:17.253Z,46.00
2023-02-25T01:35:59.595Z,45.00
2023-02-25T01:36:44.533Z,46.00
2023-02-25T01:37:29.478Z,44.00
2023-02-25T01:38:14.420Z,44.99
2023-02-25T01:38:59.467Z,43.00
2023-02-25T01:39:44.961Z,43.00
2023-02-25T01:40:32.421Z,45.00
2023-02-25T01:41:14.661Z,34.00
2023-02-25T01:41:59.719Z,23.00
2023-02-25T01:42:44.685Z,29.00
2023-02-25T01:43:30.235Z,45.99
2023-02-25T01:44:15.088Z,46.00
2023-02-25T01:45:00.365Z,52.00
2023-02-25T01:45:45.209Z,55.99
2023-02-25T01:46:30.472Z,55.99
2023-02-25T01:47:15.438Z,54.99
2023-02-25T01:48:00.740Z,56.99
2023-02-25T01:48:45.736Z,55.99
2023-02-25T01:49:30.410Z,56.99
2023-02-25T01:50:15.803Z,54.99
2023-02-25T01:51:00.679Z,56.99
2023-02-25T01:51:45.472Z,56.99
2023-02-25T01:52:30.526Z,56.99
2023-02-25T01:53:15.668Z,56.99
2023-02-25T01:54:00.597Z,56.99
2023-02-25T01:54:45.746Z,54.99
2023-02-25T01:55:30.706Z,53.99
2023-02-25T01:56:15.886Z,49.00
2023-02-25T01:57:00.718Z,52.00
2023-02-25T01:57:45.601Z,62.99
2023-02-25T01:58:30.730Z,62.99
2023-02-25T01:59:15.820Z,64.99
2023-02-25T02:00:00.851Z,62.99
2023-02-25T02:00:46.110Z,61.99
2023-02-25T02:01:31.178Z,63.99
2023-02-25T02:02:16.105Z,63.99
2023-02-25T02:03:01.273Z,63.00
2023-02-25T02:03:46.480Z,61.99
2023-02-25T02:04:31.347Z,60.99
2023-02-25T02:05:17.567Z,60.99
2023-02-25T02:06:01.747Z,59.99
2023-02-25T02:06:46.493Z,58.99
2023-02-25T02:07:31.618Z,59.99
2023-02-25T02:08:16.717Z,58.99
2023-02-25T02:09:01.521Z,60.99
2023-02-25T02:09:46.573Z,54.99
2023-02-25T02:10:31.650Z,58.99
2023-02-25T02:11:17.310Z,56.99
2023-02-25T02:12:01.850Z,57.99
2023-02-25T02:12:46.977Z,58.99
2023-02-25T02:13:32.408Z,58.99
2023-02-25T02:14:17.019Z,57.99
2023-02-25T02:15:01.978Z,56.00
2023-02-25T02:15:47.178Z,56.99
2023-02-25T02:16:32.375Z,56.99
2023-02-25T02:17:17.056Z,55.99
2023-02-25T02:18:02.196Z,56.99
2023-02-25T02:18:47.253Z,57.99
2023-02-25T02:19:32.312Z,55.99
2023-02-25T02:20:17.686Z,55.99
2023-02-25T02:21:02.457Z,55.99
2023-02-25T02:21:47.718Z,53.99
2023-02-25T02:22:32.674Z,53.99
2023-02-25T02:23:17.489Z,53.00
2023-02-25T02:24:02.546Z,52.99
2023-02-25T02:24:48.018Z,49.00
2023-02-25T02:25:32.739Z,50.99
2023-02-25T02:26:18.160Z,53.00
2023-02-25T02:27:03.508Z,52.00
2023-02-25T02:27:48.032Z,51.00
2023-02-25T02:28:33.090Z,52.99
2023-02-25T02:29:18.140Z,50.00
2023-02-25T02:30:03.115Z,52.00
2023-02-25T02:30:48.514Z,52.99
2023-02-25T02:31:33.140Z,52.00
2023-02-25T02:32:18.345Z,52.00
2023-02-25T02:33:03.434Z,52.00
2023-02-25T02:33:48.684Z,50.00
2023-02-25T02:34:33.542Z,48.00
2023-02-25T02:35:19.349Z,50.00
2023-02-25T02:36:03.425Z,50.00
2023-02-25T02:36:48.939Z,50.00
2023-02-25T02:37:33.336Z,48.00
2023-02-25T02:38:18.571Z,48.00
2023-02-25T02:39:03.676Z,48.00
2023-02-25T02:39:48.872Z,52.00
2023-02-25T02:40:34.289Z,52.99
2023-02-25T02:41:19.086Z,52.00
2023-02-25T02:42:04.034Z,51.00
2023-02-25T02:42:49.214Z,48.00
2023-02-25T02:43:34.115Z,50.00
2023-02-25T02:44:19.128Z,47.00
2023-02-25T02:45:04.063Z,50.00
2023-02-25T02:45:49.083Z,48.00
2023-02-25T02:46:35.178Z,50.00
2023-02-25T02:47:19.373Z,46.00
2023-02-25T02:48:04.631Z,51.00
2023-02-25T02:48:49.921Z,51.00
2023-02-25T02:49:34.418Z,35.00
2023-02-25T02:50:20.140Z,15.00
2023-02-25T02:51:04.578Z,9.00
2023-02-25T02:51:49.158Z,10.00
2023-02-25T02:52:34.787Z,17.00
2023-02-25T02:53:19.971Z,18.00
2023-02-25T02:54:05.356Z,18.00
2023-02-25T02:54:49.968Z,20.00
2023-02-25T02:55:34.875Z,20.00
2023-02-25T02:56:19.888Z,20.00
2023-02-25T02:57:05.533Z,20.00
2023-02-25T02:57:50.286Z,24.00
2023-02-25T02:58:35.210Z,21.00
2023-02-25T02:59:20.245Z,27.00
2023-02-25T03:00:05.468Z,16.00
2023-02-25T03:00:50.185Z,14.00
2023-02-25T03:01:35.204Z,18.00
2023-02-25T03:02:20.599Z,20.00
2023-02-25T03:03:05.372Z,28.00
2023-02-25T03:03:50.819Z,28.00
2023-02-25T03:04:35.274Z,42.99
2023-02-25T03:05:20.765Z,42.99
2023-02-25T03:06:05.616Z,45.99
2023-02-25T03:06:50.802Z,43.99
2023-02-25T03:07:35.615Z,44.99
2023-02-25T03:08:20.665Z,45.99
2023-02-25T03:09:05.715Z,47.99
2023-02-25T03:09:50.920Z,47.99
2023-02-25T03:10:36.115Z,48.99
2023-02-25T03:11:21.489Z,47.99
2023-02-25T03:12:06.068Z,47.99
2023-02-25T03:12:51.204Z,47.99
2023-02-25T03:13:36.301Z,47.99
2023-02-25T03:14:21.227Z,44.99
2023-02-25T03:15:06.377Z,45.99
2023-02-25T03:15:51.569Z,46.99
2023-02-25T03:16:36.367Z,47.99
2023-02-25T03:17:21.719Z,47.99
2023-02-25T03:18:06.401Z,48.99
2023-02-25T03:18:51.668Z,47.99
2023-02-25T03:19:37.013Z,46.99
2023-02-25T03:20:22.121Z,45.99
2023-02-25T03:21:06.834Z,46.99
2023-02-25T03:21:51.966Z,45.99
2023-02-25T03:22:36.654Z,43.99
2023-02-25T03:23:22.200Z,44.99
2023-02-25T03:24:06.666Z,32.99
2023-02-25T03:24:52.123Z,17.00
2023-02-25T03:25:36.927Z,16.00
2023-02-25T03:26:22.622Z,16.00
2023-02-25T03:27:07.292Z,13.00
2023-02-25T03:27:52.443Z,35.99
2023-02-25T03:28:36.834Z,32.99
2023-02-25T03:29:22.157Z,31.99
2023-02-25T03:30:07.064Z,32.99
2023-02-25T03:30:52.500Z,30.99
2023-02-25T03:31:37.351Z,34.99
2023-02-25T03:32:22.272Z,29.99
2023-02-25T03:33:07.586Z,29.99
2023-02-25T03:33:52.405Z,29.99
2023-02-25T03:34:37.588Z,21.00
2023-02-25T03:35:22.757Z,22.99
2023-02-25T03:36:07.704Z,22.00
2023-02-25T03:36:53.141Z,22.00
2023-02-25T03:37:37.783Z,22.00
2023-02-25T03:38:22.848Z,22.00
2023-02-25T03:39:07.892Z,22.00
2023-02-25T03:39:53.242Z,18.99
2023-02-25T03:40:37.918Z,19.00
2023-02-25T03:41:23.264Z,19.00
2023-02-25T03:42:07.900Z,19.00
2023-02-25T03:42:52.979Z,18.00
2023-02-25T03:43:38.312Z,20.00
2023-02-25T03:44:23.164Z,51.99
2023-02-25T03:45:09.185Z,50.99
2023-02-25T03:45:53.170Z,53.99
2023-02-25T03:46:38.383Z,53.99
2023-02-25T03:47:24.154Z,54.99
2023-02-25T03:48:08.478Z,54.99
2023-02-25T03:48:53.755Z,56.99
2023-02-25T03:49:38.414Z,54.99
2023-02-25T03:50:23.851Z,54.99
2023-02-25T03:51:08.973Z,52.99
2023-02-25T03:51:54.162Z,50.99
2023-02-25T03:52:38.502Z,54.99
2023-02-25T03:53:23.611Z,51.99
2023-02-25T03:54:08.816Z,56.99
2023-02-25T03:54:54.068Z,58.99
2023-02-25T03:55:38.955Z,54.99
2023-02-25T03:56:24.195Z,53.99
2023-02-25T03:57:09.314Z,54.99
2023-02-25T03:57:53.820Z,52.99
2023-02-25T03:58:39.165Z,54.99
2023-02-25T03:59:23.920Z,54.99
2023-02-25T04:00:09.559Z,52.99
2023-02-25T04:00:54.322Z,52.99
2023-02-25T04:01:39.300Z,50.99
2023-02-25T04:02:24.048Z,54.99
2023-02-25T04:03:09.697Z,55.99
2023-02-25T04:03:54.535Z,57.99
2023-02-25T04:04:39.855Z,57.99
2023-02-25T04:05:24.585Z,56.99
2023-02-25T04:06:09.480Z,57.99
2023-02-25T04:06:54.665Z,55.99
2023-02-25T04:07:39.615Z,56.99
2023-02-25T04:08:24.483Z,56.99
2023-02-25T04:09:09.133Z,55.99
2023-02-25T04:09:54.578Z,55.99
2023-02-25T04:10:39.843Z,56.99
2023-02-25T04:11:24.908Z,56.99
2023-02-25T04:12:09.728Z,57.99
2023-02-25T04:12:55.272Z,54.99
2023-02-25T04:13:40.126Z,52.99
2023-02-25T04:14:24.886Z,55.99
2023-02-25T04:15:09.763Z,52.99
2023-02-25T04:15:54.864Z,53.99
2023-02-25T04:16:40.321Z,56.99
2023-02-25T04:17:25.112Z,55.99
2023-02-25T04:18:10.223Z,54.99
2023-02-25T04:18:55.476Z,55.99
2023-02-25T04:19:40.232Z,52.99
2023-02-25T04:20:25.276Z,54.99
2023-02-25T04:21:10.697Z,54.99
2023-02-25T04:21:55.719Z,55.99
2023-02-25T04:22:40.353Z,54.99
2023-02-25T04:23:25.594Z,55.99
2023-02-25T04:24:10.568Z,55.99
2023-02-25T04:24:55.411Z,52.99
2023-02-25T04:25:40.545Z,52.99
2023-02-25T04:26:25.737Z,55.99
2023-02-25T04:27:10.712Z,52.99
2023-02-25T04:27:55.754Z,52.99
2023-02-25T04:28:40.887Z,53.99
2023-02-25T04:29:26.422Z,53.99
2023-02-25T04:30:10.795Z,51.99
2023-02-25T04:30:55.987Z,49.99
2023-02-25T04:31:41.244Z,50.99
2023-02-25T04:32:26.378Z,51.99
2023-02-25T04:33:11.256Z,52.99
2023-02-25T04:33:56.280Z,52.99
2023-02-25T04:34:41.035Z,52.99
2023-02-25T04:35:28.968Z,52.99
2023-02-25T04:36:11.460Z,50.99
2023-02-25T04:36:56.676Z,50.99
2023-02-25T04:37:41.671Z,50.99
2023-02-25T04:38:27.236Z,49.99
2023-02-25T04:39:11.527Z,52.99
2023-02-25T04:39:56.534Z,51.99
2023-02-25T04:40:41.693Z,52.99
2023-02-25T04:41:26.744Z,52.99
2023-02-25T04:42:12.108Z,53.99
2023-02-25T04:42:57.225Z,54.98
2023-02-25T04:43:41.807Z,53.99
2023-02-25T04:44:27.443Z,52.99
2023-02-25T04:45:12.332Z,53.99
2023-02-25T04:45:57.215Z,52.99
2023-02-25T04:46:43.081Z,55.99
2023-02-25T04:47:27.302Z,52.99
2023-02-25T04:48:12.400Z,53.99
2023-02-25T04:48:57.223Z,52.99
2023-02-25T04:49:42.476Z,52.99
2023-02-25T04:50:27.368Z,51.99
2023-02-25T04:51:12.747Z,52.99
2023-02-25T04:51:57.843Z,54.99
2023-02-25T04:52:42.691Z,55.99
2023-02-25T04:53:27.649Z,56.99
2023-02-25T04:54:13.089Z,54.99
2023-02-25T04:54:57.877Z,56.99
2023-02-25T04:55:42.699Z,50.99
2023-02-25T04:56:27.978Z,50.99
2023-02-25T04:57:12.785Z,49.99
2023-02-25T04:57:58.749Z,52.99
2023-02-25T04:58:42.843Z,50.99
2023-02-25T04:59:27.904Z,50.99
2023-02-25T05:00:13.096Z,51.99
2023-02-25T05:00:58.213Z,52.99
2023-02-25T05:01:42.978Z,53.99
2023-02-25T05:02:28.358Z,51.99
2023-02-25T05:03:13.426Z,50.99
2023-02-25T05:03:58.141Z,51.99
2023-02-25T05:04:43.570Z,51.99
2023-02-25T05:05:28.310Z,52.99
2023-02-25T05:06:13.559Z,51.99
2023-02-25T05:06:58.849Z,52.99
2023-02-25T05:07:43.724Z,51.99
2023-02-25T05:08:28.497Z,51.99
2023-02-25T05:09:13.629Z,51.99
2023-02-25T05:09:58.969Z,52.99
2023-02-25T05:10:45.235Z,56.99
2023-02-25T05:11:28.931Z,53.99
2023-02-25T05:12:13.962Z,50.99
2023-02-25T05:12:58.705Z,48.99
2023-02-25T05:13:43.915Z,46.99
2023-02-25T05:14:29.998Z,49.99
2023-02-25T05:15:14.615Z,51.99
2023-02-25T05:15:58.876Z,51.99
2023-02-25T05:16:44.566Z,51.98
2023-02-25T05:17:29.397Z,51.99
2023-02-25T05:18:14.565Z,51.99
2023-02-25T05:18:59.989Z,48.99
2023-02-25T05:19:44.627Z,50.98
2023-02-25T05:20:29.598Z,50.99
2023-02-25T05:21:14.864Z,49.99
2023-02-25T05:21:59.900Z,52.99
2023-02-25T05:22:45.058Z,53.99
2023-02-25T05:23:29.929Z,52.99
2023-02-25T05:24:15.068Z,51.99
2023-02-25T05:25:00.059Z,50.98
2023-02-25T05:25:45.079Z,50.99
2023-02-25T05:26:30.244Z,50.99
2023-02-25T05:27:15.953Z,51.99
2023-02-25T05:28:00.114Z,52.99
2023-02-25T05:28:45.279Z,47.99
2023-02-25T05:29:30.295Z,49.99
2023-02-25T05:30:15.217Z,52.99
2023-02-25T05:31:00.433Z,53.99
2023-02-25T05:31:45.682Z,52.99
2023-02-25T05:32:30.665Z,48.99
2023-02-25T05:33:15.231Z,48.99
2023-02-25T05:34:00.392Z,49.99
2023-02-25T05:34:45.683Z,49.99
2023-02-25T05:35:30.399Z,49.99
2023-02-25T05:36:15.904Z,52.99
2023-02-25T05:37:00.619Z,52.99
2023-02-25T05:37:45.879Z,54.99
2023-02-25T05:38:31.369Z,54.99
2023-02-25T05:39:15.896Z,52.99
2023-02-25T05:40:00.776Z,53.99
2023-02-25T05:40:45.792Z,54.99
2023-02-25T05:41:31.602Z,51.99
2023-02-25T05:42:15.804Z,52.99
2023-02-25T05:43:00.700Z,52.99
2023-02-25T05:43:46.125Z,52.99
2023-02-25T05:44:30.884Z,52.99
2023-02-25T05:45:15.929Z,52.99
2023-02-25T05:46:01.481Z,53.00
2023-02-25T05:46:46.300Z,51.00
2023-02-25T05:47:31.002Z,50.00
2023-02-25T05:48:16.357Z,54.99
2023-02-25T05:49:01.197Z,53.99
2023-02-25T05:49:46.575Z,53.99
2023-02-25T05:50:31.380Z,53.99
2023-02-25T05:51:16.383Z,52.99
2023-02-25T05:52:01.450Z,54.99
2023-02-25T05:52:46.611Z,52.99
2023-02-25T05:53:31.652Z,54.99
2023-02-25T05:54:16.613Z,53.99
2023-02-25T05:55:01.725Z,54.99
2023-02-25T05:55:46.817Z,52.99
2023-02-25T05:56:32.277Z,52.98
2023-02-25T05:57:17.037Z,51.99
2023-02-25T05:58:01.692Z,51.99
2023-02-25T05:58:46.565Z,53.99
2023-02-25T05:59:31.899Z,53.98
2023-02-25T06:00:17.062Z,53.99
2023-02-25T06:01:02.129Z,51.98
2023-02-25T06:01:47.145Z,52.99
2023-02-25T06:02:32.196Z,51.99
2023-02-25T06:03:17.254Z,52.99
2023-02-25T06:04:01.935Z,51.99
2023-02-25T06:04:47.500Z,52.99
2023-02-25T06:05:32.209Z,51.99
2023-02-25T06:06:17.529Z,51.99
2023-02-25T06:07:02.504Z,53.99
2023-02-25T06:07:47.417Z,52.99
2023-02-25T06:08:32.982Z,53.99
2023-02-25T06:09:17.536Z,52.98
2023-02-25T06:10:02.796Z,53.99
2023-02-25T06:10:47.918Z,50.98
2023-02-25T06:11:32.599Z,53.99
2023-02-25T06:12:17.850Z,54.99
2023-02-25T06:13:02.814Z,52.99
2023-02-25T06:13:47.965Z,52.99
2023-02-25T06:14:33.045Z,52.99
2023-02-25T06:15:18.220Z,52.99
2023-02-25T06:16:03.086Z,52.99
2023-02-25T06:16:47.682Z,53.98
2023-02-25T06:17:33.214Z,52.99
2023-02-25T06:18:17.959Z,53.99
2023-02-25T06:19:03.266Z,53.99
2023-02-25T06:19:48.393Z,51.99
2023-02-25T06:20:33.500Z,51.99
2023-02-25T06:21:18.435Z,52.98
2023-02-25T06:22:03.623Z,55.99
2023-02-25T06:22:48.549Z,53.99
2023-02-25T06:23:33.636Z,52.99
2023-02-25T06:24:18.733Z,51.98
2023-02-25T06:25:03.549Z,53.99
2023-02-25T06:25:48.662Z,53.99
2023-02-25T06:26:33.517Z,54.99
2023-02-25T06:27:19.421Z,53.99
2023-02-25T06:28:03.974Z,54.99
2023-02-25T06:28:48.890Z,52.99
2023-02-25T06:29:34.180Z,52.99
2023-02-25T06:30:18.905Z,52.99
2023-02-25T06:31:04.377Z,53.99
2023-02-25T06:31:49.778Z,53.99
2023-02-25T06:32:34.436Z,52.99
2023-02-25T06:33:19.128Z,53.99
2023-02-25T06:34:04.409Z,53.99
2023-02-25T06:34:49.240Z,52.99
2023-02-25T06:35:34.368Z,52.99
2023-02-25T06:36:19.355Z,54.99
2023-02-25T06:37:04.312Z,54.99
2023-02-25T06:37:49.697Z,54.99
2023-02-25T06:38:34.773Z,54.99
2023-02-25T06:39:19.387Z,52.99
2023-02-25T06:40:04.635Z,52.99
2023-02-25T06:40:49.755Z,49.99
2023-02-25T06:41:35.112Z,47.98
2023-02-25T06:42:20.028Z,48.99
2023-02-25T06:43:05.045Z,48.99
2023-02-25T06:43:50.190Z,46.99
2023-02-25T06:44:34.885Z,46.99
2023-02-25T06:45:20.959Z,47.99
2023-02-25T06:46:04.939Z,47.99
2023-02-25T06:46:50.151Z,47.99
2023-02-25T06:47:34.966Z,46.99
2023-02-25T06:48:20.396Z,48.99
2023-02-25T06:49:05.339Z,47.99
2023-02-25T06:49:50.420Z,47.99
2023-02-25T06:50:35.427Z,44.99
2023-02-25T06:51:20.410Z,44.99
2023-02-25T06:52:05.775Z,49.99
2023-02-25T06:52:50.676Z,49.99
2023-02-25T06:53:36.435Z,50.99
2023-02-25T06:54:20.618Z,49.99
2023-02-25T06:55:05.310Z,49.99
2023-02-25T06:55:50.900Z,48.99
2023-02-25T06:56:35.611Z,49.99
2023-02-25T06:57:20.403Z,48.99
2023-02-25T06:58:06.003Z,49.99
2023-02-25T06:58:50.989Z,50.99
2023-02-25T06:59:35.949Z,50.99
2023-02-25T07:00:20.755Z,50.99
2023-02-25T07:01:06.270Z,50.99
2023-02-25T07:01:51.421Z,49.99
2023-02-25T07:02:36.128Z,49.99
2023-02-25T07:03:20.908Z,50.99
2023-02-25T07:04:06.331Z,50.99
2023-02-25T07:04:51.763Z,50.99
2023-02-25T07:05:36.605Z,50.99
2023-02-25T07:06:21.252Z,50.99
2023-02-25T07:07:06.518Z,49.99
2023-02-25T07:07:51.628Z,50.99
2023-02-25T07:08:36.213Z,50.99
2023-02-25T07:09:21.400Z,47.99
2023-02-25T07:10:06.585Z,45.99
2023-02-25T07:10:52.001Z,50.99
2023-02-25T07:11:36.913Z,49.99
2023-02-25T07:12:21.923Z,49.97
2023-02-25T07:13:06.632Z,50.99
2023-02-25T07:13:52.389Z,50.99
2023-02-25T07:14:36.821Z,50.99
2023-02-25T07:15:21.981Z,50.99
2023-02-25T07:16:07.689Z,50.99
2023-02-25T07:16:52.126Z,50.97
2023-02-25T07:17:37.294Z,50.99
2023-02-25T07:18:22.409Z,50.99
2023-02-25T07:19:07.109Z,52.99
2023-02-25T07:19:52.700Z,50.99
2023-02-25T07:20:37.614Z,52.99
2023-02-25T07:21:22.335Z,51.99
2023-02-25T07:22:07.587Z,50.99
2023-02-25T07:22:52.546Z,51.99
2023-02-25T07:23:37.603Z,51.99
2023-02-25T07:24:22.785Z,50.99
2023-02-25T07:25:07.745Z,51.99
2023-02-25T07:25:52.784Z,51.99
2023-02-25T07:26:37.575Z,50.99
2023-02-25T07:27:22.655Z,51.99
2023-02-25T07:28:07.734Z,50.99
2023-02-25T07:28:53.078Z,51.99
2023-02-25T07:29:37.857Z,51.99
2023-02-25T07:30:22.743Z,48.98
2023-02-25T07:31:07.630Z,50.99
2023-02-25T07:31:53.396Z,49.99
2023-02-25T07:32:37.988Z,49.99
2023-02-25T07:33:23.127Z,48.99
2023-02-25T07:34:08.089Z,49.99
2023-02-25T07:34:52.862Z,50.99
2023-02-25T07:35:38.306Z,50.99
2023-02-25T07:36:23.380Z,51.99
2023-02-25T07:37:08.511Z,50.99
2023-02-25T07:37:54.187Z,52.97
2023-02-25T07:38:38.292Z,51.99
2023-02-25T07:39:23.646Z,52.99
2023-02-25T07:40:08.916Z,51.99
2023-02-25T07:40:54.055Z,51.99
2023-02-25T07:41:39.093Z,50.99
2023-02-25T07:42:23.919Z,52.99
2023-02-25T07:43:09.211Z,49.99
2023-02-25T07:43:54.304Z,48.99
2023-02-25T07:44:39.181Z,49.98
2023-02-25T07:45:24.429Z,49.99
2023-02-25T07:46:08.910Z,47.99
2023-02-25T07:46:54.049Z,53.99
2023-02-25T07:47:39.426Z,53.99
2023-02-25T07:48:24.543Z,53.99
2023-02-25T07:49:09.326Z,54.99
2023-02-25T07:49:54.478Z,53.99
2023-02-25T07:50:39.327Z,52.99
2023-02-25T07:51:24.554Z,52.99
2023-02-25T07:52:09.532Z,52.99
2023-02-25T07:52:54.515Z,52.99
2023-02-25T07:53:39.455Z,53.99
2023-02-25T07:54:24.508Z,48.99
2023-02-25T07:55:09.651Z,49.99
2023-02-25T07:55:54.493Z,48.99
2023-02-25T07:56:39.172Z,49.99
2023-02-25T07:57:24.527Z,48.99
2023-02-25T07:58:09.893Z,49.99
2023-02-25T07:58:54.964Z,48.99
2023-02-25T07:59:39.708Z,50.99
2023-02-25T08:00:24.786Z,49.99
2023-02-25T08:01:09.772Z,46.99
2023-02-25T08:01:54.776Z,47.99
2023-02-25T08:02:40.274Z,47.99
2023-02-25T08:03:25.014Z,47.99
2023-02-25T08:04:10.375Z,48.99
2023-02-25T08:04:54.994Z,48.99
2023-02-25T08:05:39.826Z,49.99
2023-02-25T08:06:25.235Z,47.99
2023-02-25T08:07:10.341Z,47.99
2023-02-25T08:07:55.734Z,47.99
2023-02-25T08:08:40.287Z,48.99
2023-02-25T08:09:25.338Z,48.99
2023-02-25T08:10:10.561Z,48.99
2023-02-25T08:10:56.159Z,46.98
2023-02-25T08:11:40.356Z,48.99
2023-02-25T08:12:25.691Z,46.99
2023-02-25T08:13:10.713Z,45.99
2023-02-25T08:13:56.142Z,46.99
2023-02-25T08:14:40.982Z,48.99
2023-02-25T08:15:25.687Z,47.99
2023-02-25T08:16:10.711Z,47.99
2023-02-25T08:16:55.807Z,48.99
2023-02-25T08:17:40.960Z,48.98
2023-02-25T08:18:25.962Z,48.99
2023-02-25T08:19:10.957Z,48.99
2023-02-25T08:19:56.219Z,47.99
2023-02-25T08:20:41.073Z,48.99
2023-02-25T08:21:26.097Z,48.99
2023-02-25T08:22:10.978Z,49.98
2023-02-25T08:22:56.685Z,48.99
2023-02-25T08:23:41.394Z,49.98
2023-02-25T08:24:26.381Z,48.99
2023-02-25T08:25:12.854Z,48.99
2023-02-25T08:25:56.570Z,50.99
2023-02-25T08:26:41.538Z,50.98
2023-02-25T08:27:26.681Z,50.99
2023-02-25T08:28:11.652Z,47.99
2023-02-25T08:28:57.135Z,44.99
2023-02-25T08:29:41.651Z,47.99
2023-02-25T08:30:26.507Z,47.99
2023-02-25T08:31:11.780Z,43.99
2023-02-25T08:31:57.185Z,44.99
2023-02-25T08:32:42.126Z,42.99
2023-02-25T08:33:27.052Z,43.99
2023-02-25T08:34:12.371Z,44.99
2023-02-25T08:34:56.964Z,44.98
2023-02-25T08:35:42.420Z,43.99
2023-02-25T08:36:27.162Z,43.99
2023-02-25T08:37:12.213Z,42.99
2023-02-25T08:37:57.181Z,44.99
2023-02-25T08:38:42.258Z,45.99
2023-02-25T08:39:27.194Z,46.98
2023-02-25T08:40:12.408Z,46.99
2023-02-25T08:40:57.941Z,45.99
2023-02-25T08:41:42.485Z,45.99
2023-02-25T08:42:27.514Z,45.99
2023-02-25T08:43:12.536Z,43.98
2023-02-25T08:43:57.621Z,44.99
2023-02-25T08:44:42.777Z,45.98
2023-02-25T08:45:27.639Z,44.99
2023-02-25T08:46:12.739Z,44.98
2023-02-25T08:46:58.079Z,44.99
2023-02-25T08:47:42.878Z,43.99
2023-02-25T08:48:27.854Z,41.99
2023-02-25T08:49:13.021Z,42.98
2023-02-25T08:49:57.683Z,41.99
2023-02-25T08:50:43.179Z,41.99
2023-02-25T08:51:28.105Z,41.99
2023-02-25T08:52:12.930Z,39.99
2023-02-25T08:52:57.975Z,42.99
2023-02-25T08:53:42.903Z,38.99
2023-02-25T08:54:28.186Z,39.99
2023-02-25T08:55:13.640Z,39.99
2023-02-25T08:55:58.314Z,46.99
2023-02-25T08:56:43.585Z,43.99
2023-02-25T08:57:28.438Z,42.99
2023-02-25T08:58:13.445Z,44.99
2023-02-25T08:58:58.618Z,44.99
2023-02-25T08:59:43.319Z,42.99
2023-02-25T09:00:28.842Z,43.99
2023-02-25T09:01:13.786Z,41.99
2023-02-25T09:01:58.768Z,43.99
2023-02-25T09:02:43.834Z,39.99
2023-02-25T09:03:29.189Z,39.99
2023-02-25T09:04:14.631Z,39.99
2023-02-25T09:04:59.633Z,39.99
2023-02-25T09:05:44.506Z,39.99
2023-02-25T09:06:29.684Z,39.99
2023-02-25T09:07:14.671Z,39.99
2023-02-25T09:07:59.796Z,39.99
2023-02-25T09:08:45.027Z,39.99
2023-02-25T09:09:29.160Z,37.99
2023-02-25T09:10:15.483Z,37.99
2023-02-25T09:10:59.475Z,37.99
2023-02-25T09:11:44.663Z,37.99
2023-02-25T09:12:29.696Z,37.99
2023-02-25T09:13:14.820Z,37.99
2023-02-25T09:13:59.229Z,37.99
2023-02-25T09:14:45.116Z,37.99
2023-02-25T09:15:29.947Z,37.99
2023-02-25T09:16:14.763Z,44.99
2023-02-25T09:16:59.455Z,39.99
2023-02-25T09:17:44.750Z,39.99
2023-02-25T09:18:30.124Z,39.99
2023-02-25T09:19:15.534Z,39.99
2023-02-25T09:20:00.858Z,39.99
2023-02-25T09:20:44.893Z,39.99
2023-02-25T09:21:29.947Z,40.99
2023-02-25T09:22:15.442Z,41.99
2023-02-25T09:22:59.897Z,42.99
2023-02-25T09:23:45.125Z,43.98
2023-02-25T09:24:31.136Z,43.98
2023-02-25T09:25:16.127Z,43.98
2023-02-25T09:26:00.322Z,43.98
2023-02-25T09:26:45.424Z,43.98
2023-02-25T09:27:30.374Z,43.98
2023-02-25T09:28:15.840Z,43.98
2023-02-25T09:29:00.593Z,43.98
2023-02-25T09:29:46.261Z,43.98
2023-02-25T09:30:30.629Z,43.98
2023-02-25T09:31:15.823Z,43.98
2023-02-25T09:32:01.242Z,43.98
2023-02-25T09:32:45.916Z,43.98
2023-02-25T09:33:30.916Z,43.98
2023-02-25T09:34:16.017Z,43.98
2023-02-25T09:35:01.465Z,43.98
2023-02-25T09:35:45.806Z,41.99
2023-02-25T09:36:31.106Z,43.99
2023-02-25T09:37:16.109Z,40.99
2023-02-25T09:38:01.304Z,35.99
2023-02-25T09:38:45.938Z,37.99
2023-02-25T09:39:31.199Z,35.99
2023-02-25T09:40:16.053Z,33.99
2023-02-25T09:41:01.751Z,42.99
2023-02-25T09:41:46.644Z,48.99
2023-02-25T09:42:31.204Z,48.99
2023-02-25T09:43:16.066Z,47.99
2023-02-25T09:44:01.563Z,47.99
2023-02-25T09:44:46.421Z,44.99
2023-02-25T09:45:31.369Z,45.98
2023-02-25T09:46:16.148Z,43.99